Time;durP1;ratioP1;P1;durP2;ratioP2;P2;SDS_P1;SDS_P2;PMS_P1;PMS_P2;Temp;Humidity;BMP_temperature;BMP_pressure;BME280_temperature;BME280_humidity;BME280_pressure;Samples;Min_cycle;Max_cycle;Signal;HPM_P1;HPM_P2
2022/03/27 00:02:20;;;;;;;9.93;4.78;;;;;;;;;;5036075;28;20037;-77
2022/03/27 00:04:47;;;;;;;13.55;4.90;;;;;;;;;;5034265;28;20036;-77
2022/03/27 00:07:13;;;;;;;14.18;4.30;;;;;;;;;;5036493;28;20107;-77
2022/03/27 00:09:39;;;;;;;12.40;4.22;;;;;;;;;;5035914;28;20033;-76
2022/03/27 00:12:05;;;;;;;7.15;4.28;;;;;;;;;;5031862;28;20041;-76
2022/03/27 00:14:31;;;;;;;10.98;4.05;;;;;;;;;;5034212;28;20025;-77
2022/03/27 00:16:57;;;;;;;13.40;4.93;;;;;;;;;;5040272;28;20462;-76
2022/03/27 00:19:24;;;;;;;10.60;4.65;;;;;;;;;;5035456;28;20037;-77
2022/03/27 00:21:50;;;;;;;10.45;4.28;;;;;;;;;;5025463;28;20048;-76
2022/03/27 00:24:17;;;;;;;14.07;4.93;;;;;;;;;;5026583;28;20478;-77
2022/03/27 00:26:42;;;;;;;14.70;4.97;;;;;;;;;;5037897;28;20129;-76
2022/03/27 00:29:09;;;;;;;11.95;4.65;;;;;;;;;;5037491;28;20667;-76
2022/03/27 00:31:38;;;;;;;17.42;5.07;;;;;;;;;;5035683;28;20072;-76
2022/03/27 00:34:05;;;;;;;12.45;4.95;;;;;;;;;;5038162;28;20033;-76
2022/03/27 00:36:31;;;;;;;12.50;5.35;;;;;;;;;;5040515;28;20114;-76
2022/03/27 00:38:57;;;;;;;15.85;5.43;;;;;;;;;;5034063;28;20036;-76
2022/03/27 00:41:24;;;;;;;11.10;4.20;;;;;;;;;;5033693;28;20048;-76
2022/03/27 00:43:50;;;;;;;10.07;4.93;;;;;;;;;;5032752;28;20036;-76
2022/03/27 00:46:16;;;;;;;14.50;4.93;;;;;;;;;;5038147;28;20039;-76
2022/03/27 00:48:42;;;;;;;12.57;5.25;;;;;;;;;;5036301;28;20125;-76
2022/03/27 00:51:08;;;;;;;13.85;5.78;;;;;;;;;;5029881;28;20037;-76
2022/03/27 00:53:34;;;;;;;9.25;5.10;;;;;;;;;;5032066;28;20032;-76
2022/03/27 00:56:00;;;;;;;8.40;3.75;;;;;;;;;;5036606;28;20103;-76
2022/03/27 00:58:26;;;;;;;11.27;4.75;;;;;;;;;;5038383;28;20033;-77
2022/03/27 01:01:11;;;;;;;17.27;4.80;;;;;;;;;;5033308;28;20036;-76
2022/03/27 01:03:37;;;;;;;12.50;4.63;;;;;;;;;;5035766;28;20037;-76
2022/03/27 01:06:03;;;;;;;9.70;3.67;;;;;;;;;;5042680;28;20405;-76
2022/03/27 01:11:16;;;;;;;17.45;4.50;;;;;;;;;;5042250;28;20048;-76
2022/03/27 01:13:50;;;;;;;8.70;4.13;;;;;;;;;;5038931;28;20021;-76
2022/03/27 01:16:17;;;;;;;6.85;3.90;;;;;;;;;;5041185;28;20048;-76
2022/03/27 01:18:43;;;;;;;8.57;4.57;;;;;;;;;;5032303;28;20033;-76
2022/03/27 01:21:09;;;;;;;11.63;3.97;;;;;;;;;;5035940;28;20055;-76
2022/03/27 01:23:35;;;;;;;7.80;3.42;;;;;;;;;;5036788;28;20048;-76
2022/03/27 01:26:01;;;;;;;12.00;4.38;;;;;;;;;;5033369;28;20028;-76
2022/03/27 01:28:27;;;;;;;6.20;3.70;;;;;;;;;;5030761;28;20013;-75
2022/03/27 01:30:53;;;;;;;9.45;3.28;;;;;;;;;;5034831;28;20041;-76
2022/03/27 01:33:19;;;;;;;10.02;3.35;;;;;;;;;;5026429;28;20036;-76
2022/03/27 01:35:45;;;;;;;12.07;3.22;;;;;;;;;;5033309;28;20030;-76
2022/03/27 01:38:11;;;;;;;7.90;3.72;;;;;;;;;;5035250;28;20025;-76
2022/03/27 01:40:37;;;;;;;13.30;5.35;;;;;;;;;;5030703;28;20021;-76
2022/03/27 01:43:03;;;;;;;24.20;4.60;;;;;;;;;;5030645;28;21036;-77
2022/03/27 01:45:29;;;;;;;15.10;3.20;;;;;;;;;;5031367;28;20102;-76
2022/03/27 01:47:55;;;;;;;7.53;4.60;;;;;;;;;;5039953;28;20500;-76
2022/03/27 01:50:21;;;;;;;13.75;5.20;;;;;;;;;;5034977;28;20026;-76
2022/03/27 01:52:47;;;;;;;8.52;3.83;;;;;;;;;;5032026;28;20021;-76
2022/03/27 01:55:16;;;;;;;12.70;3.67;;;;;;;;;;5031475;28;20064;-76
2022/03/27 01:57:42;;;;;;;20.90;4.07;;;;;;;;;;5034631;28;20068;-76
2022/03/27 02:00:09;;;;;;;9.35;4.00;;;;;;;;;;5033378;28;20025;-76
2022/03/27 02:02:35;;;;;;;8.45;3.67;;;;;;;;;;5029283;28;20059;-77
2022/03/27 02:05:04;;;;;;;13.15;3.97;;;;;;;;;;5032671;28;20025;-77
2022/03/27 02:07:36;;;;;;;6.47;3.42;;;;;;;;;;5034364;28;20108;-76
2022/03/27 02:10:02;;;;;;;7.03;3.35;;;;;;;;;;5031642;28;20057;-76
2022/03/27 02:12:28;;;;;;;14.38;3.97;;;;;;;;;;5030139;28;20071;-76
2022/03/27 02:14:56;;;;;;;8.65;3.72;;;;;;;;;;5029445;28;20620;-76
2022/03/27 02:17:22;;;;;;;7.07;3.40;;;;;;;;;;5037625;28;20029;-76
2022/03/27 02:19:47;;;;;;;11.13;3.97;;;;;;;;;;5037827;28;20104;-76
2022/03/27 02:22:13;;;;;;;8.38;2.90;;;;;;;;;;5032096;28;20021;-77
2022/03/27 02:24:39;;;;;;;13.77;4.18;;;;;;;;;;5032042;28;20033;-76
2022/03/27 02:27:05;;;;;;;17.77;4.13;;;;;;;;;;5037458;28;20448;-76
2022/03/27 02:29:32;;;;;;;11.55;3.35;;;;;;;;;;5034739;28;20066;-76
2022/03/27 02:31:58;;;;;;;9.70;3.45;;;;;;;;;;5032117;28;20116;-76
2022/03/27 02:34:24;;;;;;;9.10;3.42;;;;;;;;;;5036596;28;20502;-76
2022/03/27 02:36:50;;;;;;;13.80;4.20;;;;;;;;;;5039247;28;20040;-76
2022/03/27 02:39:16;;;;;;;10.82;4.25;;;;;;;;;;5036649;28;20043;-75
2022/03/27 02:41:45;;;;;;;9.85;4.03;;;;;;;;;;5032426;28;20060;-76
2022/03/27 02:44:12;;;;;;;12.73;3.60;;;;;;;;;;5027340;28;20028;-76
2022/03/27 02:46:38;;;;;;;15.23;4.75;;;;;;;;;;5027202;28;20060;-76
2022/03/27 02:49:04;;;;;;;18.20;4.00;;;;;;;;;;5029083;28;20085;-75
2022/03/27 02:51:30;;;;;;;14.15;4.30;;;;;;;;;;5041158;28;20033;-76
2022/03/27 02:53:56;;;;;;;16.10;4.63;;;;;;;;;;5034257;28;20033;-76
2022/03/27 02:56:22;;;;;;;5.28;3.00;;;;;;;;;;5031156;28;20030;-75
2022/03/27 02:58:48;;;;;;;14.38;5.32;;;;;;;;;;5035239;28;20033;-76
2022/03/27 03:01:15;;;;;;;10.23;3.78;;;;;;;;;;5030859;28;20057;-76
2022/03/27 03:03:42;;;;;;;8.10;3.25;;;;;;;;;;5039079;28;20033;-76
2022/03/27 03:06:09;;;;;;;7.85;3.75;;;;;;;;;;5040725;28;20049;-76
2022/03/27 03:08:38;;;;;;;11.88;4.57;;;;;;;;;;5037557;28;20915;-76
2022/03/27 03:11:04;;;;;;;12.70;3.10;;;;;;;;;;5032932;28;20037;-76
2022/03/27 03:13:30;;;;;;;8.85;4.47;;;;;;;;;;5030485;28;20072;-76
2022/03/27 03:15:56;;;;;;;9.60;3.85;;;;;;;;;;5026340;28;20056;-76
2022/03/27 03:18:23;;;;;;;13.35;3.53;;;;;;;;;;5038688;28;20072;-76
2022/03/27 03:20:48;;;;;;;10.93;3.28;;;;;;;;;;5038045;28;20025;-76
2022/03/27 03:23:14;;;;;;;8.88;4.18;;;;;;;;;;5034186;28;20076;-77
2022/03/27 03:25:42;;;;;;;7.82;3.90;;;;;;;;;;5034452;28;20032;-76
2022/03/27 03:28:09;;;;;;;9.43;4.20;;;;;;;;;;5035093;28;20065;-76
2022/03/27 03:30:35;;;;;;;14.30;5.38;;;;;;;;;;5034849;28;20523;-76
2022/03/27 03:33:01;;;;;;;8.75;3.83;;;;;;;;;;5033825;28;20025;-76
2022/03/27 03:35:27;;;;;;;15.00;5.05;;;;;;;;;;5029090;28;20028;-76
2022/03/27 03:37:54;;;;;;;12.07;4.38;;;;;;;;;;5033002;28;20021;-76
2022/03/27 03:40:20;;;;;;;9.73;4.30;;;;;;;;;;5037726;28;20043;-76
2022/03/27 03:42:46;;;;;;;10.32;3.58;;;;;;;;;;5034537;28;20033;-76
2022/03/27 03:45:12;;;;;;;14.90;4.15;;;;;;;;;;5034926;28;20071;-76
2022/03/27 03:47:38;;;;;;;8.30;2.97;;;;;;;;;;5042941;28;20051;-76
2022/03/27 03:50:05;;;;;;;9.75;4.75;;;;;;;;;;5031299;28;20087;-76
2022/03/27 03:52:31;;;;;;;9.85;3.35;;;;;;;;;;5035685;28;20095;-76
2022/03/27 03:54:57;;;;;;;10.40;3.78;;;;;;;;;;5023629;28;20022;-76
2022/03/27 03:57:23;;;;;;;15.68;4.88;;;;;;;;;;5031058;28;20034;-76
2022/03/27 03:59:49;;;;;;;10.65;3.42;;;0.80;99.90;;;;;;5037701;28;20028;-76
2022/03/27 04:02:18;;;;;;;21.90;4.68;;;;;;;;;;5035142;28;20544;-76
2022/03/27 04:04:44;;;;;;;7.30;3.20;;;;;;;;;;5029270;28;20064;-76
2022/03/27 04:07:10;;;;;;;9.48;3.63;;;;;;;;;;5031710;28;20049;-76
2022/03/27 04:09:36;;;;;;;13.30;3.80;;;;;;;;;;5036706;28;20094;-76
2022/03/27 04:12:02;;;;;;;8.23;4.10;;;;;;;;;;5036389;28;20033;-76
2022/03/27 04:14:36;;;;;;;17.08;5.45;;;;;;;;;;5036799;28;20109;-76
2022/03/27 04:17:02;;;;;;;10.63;3.70;;;;;;;;;;5035990;28;22378;-76
2022/03/27 04:19:28;;;;;;;10.25;3.78;;;;;;;;;;5034159;28;20486;-76
2022/03/27 04:21:54;;;;;;;9.80;3.42;;;;;;;;;;5029893;28;20045;-76
2022/03/27 04:24:20;;;;;;;17.63;4.25;;;;;;;;;;5035261;28;20547;-76
2022/03/27 04:26:46;;;;;;;12.13;3.97;;;;;;;;;;5041087;28;20025;-75
2022/03/27 04:29:12;;;;;;;13.50;3.92;;;;;;;;;;5031776;28;20048;-76
2022/03/27 04:31:38;;;;;;;13.52;3.95;;;;;;;;;;5038936;28;20037;-76
2022/03/27 04:34:04;;;;;;;7.03;4.00;;;;;;;;;;5032503;28;20052;-76
2022/03/27 04:36:30;;;;;;;11.60;4.60;;;;;;;;;;5028660;28;20056;-76
2022/03/27 04:38:56;;;;;;;11.77;6.00;;;;;;;;;;5035447;28;20474;-76
2022/03/27 04:41:22;;;;;;;9.68;3.92;;;;;;;;;;5039198;28;20090;-76
2022/03/27 04:43:48;;;;;;;15.32;4.45;;;;;;;;;;5039286;28;20021;-76
2022/03/27 04:46:15;;;;;;;11.80;3.88;;;;;;;;;;5024133;28;20493;-76
2022/03/27 04:48:42;;;;;;;7.22;4.47;;;;;;;;;;5024163;28;20080;-76
2022/03/27 04:51:08;;;;;;;11.95;3.55;;;;;;;;;;5035553;28;20128;-76
2022/03/27 04:53:34;;;;;;;5.68;3.38;;;;;;;;;;5037617;28;20124;-76
2022/03/27 04:56:00;;;;;;;8.77;2.92;;;;;;;;;;5034889;28;20075;-76
2022/03/27 04:58:26;;;;;;;11.10;4.18;;;;;;;;;;5039166;28;20441;-76
2022/03/27 05:00:52;;;;;;;9.95;4.25;;;;;;;;;;5036585;28;20101;-76
2022/03/27 05:03:18;;;;;;;8.82;4.18;;;;;;;;;;5033187;28;20067;-76
2022/03/27 05:05:44;;;;;;;14.07;5.43;;;;;;;;;;5034170;28;20040;-76
2022/03/27 05:08:10;;;;;;;8.65;3.90;;;;;;;;;;5038243;28;20037;-77
2022/03/27 05:10:37;;;;;;;13.20;4.50;;;;;;;;;;5038364;28;20056;-77
2022/03/27 05:13:03;;;;;;;8.13;3.95;;;;;;;;;;5035671;28;20501;-77
2022/03/27 05:15:29;;;;;;;13.82;4.95;;;;;;;;;;5032483;28;20051;-76
2022/03/27 05:17:58;;;;;;;8.05;4.65;;;;;;;;;;5038640;28;20060;-76
2022/03/27 05:20:25;;;;;;;8.35;3.00;;;;;;;;;;5038110;28;20051;-76
2022/03/27 05:22:51;;;;;;;13.15;4.47;;;;;;;;;;5036477;28;20025;-77
2022/03/27 05:25:17;;;;;;;8.50;2.58;;;;;;;;;;5039181;28;20028;-77
2022/03/27 05:27:47;;;;;;;8.80;2.67;;;;;;;;;;5040700;28;20021;-77
2022/03/27 05:30:15;;;;;;;11.38;6.32;;;;;;;;;;5041849;28;21765;-77
2022/03/27 05:32:41;;;;;;;15.25;5.15;;;;;;;;;;5042379;28;20057;-76
2022/03/27 05:35:07;;;;;;;11.02;3.97;;;;;;;;;;5033240;28;20051;-76
2022/03/27 05:37:38;;;;;;;9.57;4.53;;;0.60;99.90;;;;;;5042221;28;20029;-77
2022/03/27 05:40:05;;;;;;;11.65;4.03;;;;;;;;;;5034840;28;20033;-76
2022/03/27 05:42:31;;;;;;;15.50;4.78;;;;;;;;;;5032392;28;20109;-76
2022/03/27 05:44:57;;;;;;;16.60;5.07;;;;;;;;;;5036084;28;20561;-76
2022/03/27 05:47:23;;;;;;;10.63;4.18;;;;;;;;;;5036333;28;20032;-76
2022/03/27 05:49:49;;;;;;;10.40;5.07;;;;;;;;;;5037691;28;20036;-77
2022/03/27 05:52:16;;;;;;;7.53;3.85;;;;;;;;;;5037322;28;20044;-77
2022/03/27 05:54:42;;;;;;;8.07;3.63;;;;;;;;;;5034213;28;20025;-77
2022/03/27 05:57:08;;;;;;;13.68;4.72;;;;;;;;;;5027388;28;20152;-77
2022/03/27 05:59:34;;;;;;;9.50;4.00;;;;;;;;;;5024827;28;20796;-76
2022/03/27 06:02:00;;;;;;;12.55;4.35;;;;;;;;;;5037069;28;20025;-76
2022/03/27 06:04:26;;;;;;;10.60;3.60;;;;;;;;;;5031685;28;20032;-76
2022/03/27 06:06:52;;;;;;;14.20;4.20;;;;;;;;;;5034580;28;20044;-76
2022/03/27 06:09:18;;;;;;;11.52;4.47;;;;;;;;;;5033437;28;20021;-76
2022/03/27 06:11:44;;;;;;;21.10;6.00;;;;;;;;;;5033724;28;20389;-76
2022/03/27 06:14:10;;;;;;;12.70;5.22;;;;;;;;;;5029251;28;20027;-76
2022/03/27 06:16:37;;;;;;;13.43;5.25;;;;;;;;;;5039200;28;20033;-77
2022/03/27 06:19:04;;;;;;;14.90;5.68;;;;;;;;;;5038753;28;20025;-76
2022/03/27 06:21:30;;;;;;;11.25;3.88;;;;;;;;;;5034933;28;20025;-76
2022/03/27 06:23:55;;;;;;;8.70;3.88;;;;;;;;;;5035142;28;20033;-76
2022/03/27 06:26:21;;;;;;;15.07;5.63;;;;;;;;;;5032891;28;20032;-76
2022/03/27 06:28:48;;;;;;;10.95;5.65;;;;;;;;;;5031262;28;22123;-77
2022/03/27 06:31:13;;;;;;;12.52;3.85;;;;;;;;;;5043734;28;20122;-76
2022/03/27 06:33:39;;;;;;;12.05;4.53;;;;;;;;;;5033649;28;20496;-76
2022/03/27 06:36:06;;;;;;;12.43;5.65;;;;;;;;;;5038358;28;20037;-76
2022/03/27 06:38:32;;;;;;;12.70;3.88;;;;;;;;;;5041631;28;20021;-76
2022/03/27 06:40:58;;;;;;;9.60;4.72;;;;;;;;;;5038021;28;20501;-76
2022/03/27 06:43:24;;;;;;;16.73;5.15;;;;;;;;;;5034161;28;20083;-77
2022/03/27 06:45:50;;;;;;;13.82;4.38;;;;;;;;;;5031963;28;20026;-76
2022/03/27 06:48:17;;;;;;;13.00;5.20;;;;;;;;;;5036037;28;20048;-77
2022/03/27 06:50:47;;;;;;;11.10;4.95;;;;;;;;;;5033406;28;20512;-76
2022/03/27 06:53:18;;;;;;;8.13;4.93;;;;;;;;;;5032376;28;20128;-77
2022/03/27 06:55:44;;;;;;;12.73;6.07;;;;;;;;;;5030041;28;20033;-77
2022/03/27 06:58:11;;;;;;;15.25;5.45;;;;;;;;;;5027896;28;20029;-77
2022/03/27 07:03:21;;;;;;;17.52;5.97;;;;;;;;;;5034360;28;20171;-76
2022/03/27 07:05:48;;;;;;;12.98;5.22;;;;;;;;;;5024212;28;20112;-77
2022/03/27 07:08:15;;;;;;;17.13;5.68;;;;;;;;;;5027134;28;20025;-77
2022/03/27 07:10:41;;;;;;;16.55;6.60;;;;;;;;;;5021332;28;20021;-77
2022/03/27 07:13:09;;;;;;;14.10;5.57;;;;;;;;;;5039034;28;21298;-77
2022/03/27 07:15:36;;;;;;;16.95;4.82;;;;;;;;;;5024690;28;20037;-77
2022/03/27 07:18:02;;;;;;;14.23;6.68;;;;;;;;;;5030808;28;20021;-77
2022/03/27 07:20:30;;;;;;;8.07;4.68;;;4.20;99.90;;;;;;5038426;28;20041;-77
2022/03/27 07:22:57;;;;;;;16.65;4.47;;;;;;;;;;5035847;28;20040;-77
2022/03/27 07:25:24;;;;;;;18.95;6.53;;;;;;;;;;5028688;28;20025;-77
2022/03/27 07:27:50;;;;;;;16.50;6.05;;;;;;;;;;5040309;28;20110;-77
2022/03/27 07:30:17;;;;;;;13.00;6.57;;;;;;;;;;5033359;28;20025;-77
2022/03/27 07:32:43;;;;;;;14.65;5.00;;;;;;;;;;5037949;28;20126;-77
2022/03/27 07:35:09;;;;;;;14.80;4.97;;;;;;;;;;5022290;28;20028;-77
2022/03/27 07:37:36;;;;;;;12.70;5.57;;;;;;;;;;5034059;28;20031;-77
2022/03/27 07:40:03;;;;;;;14.05;6.05;;;;;;;;;;5038607;28;20140;-77
2022/03/27 07:42:30;;;;;;;17.88;5.82;;;;;;;;;;5035033;28;20116;-77
2022/03/27 07:44:56;;;;;;;15.15;5.65;;;;;;;;;;5030446;28;20036;-79
2022/03/27 07:47:22;;;;;;;18.60;7.15;;;;;;;;;;5029861;28;20024;-79
2022/03/27 07:49:48;;;;;;;10.93;4.80;;;;;;;;;;5031961;28;20460;-79
2022/03/27 07:52:14;;;;;;;16.27;5.57;;;;;;;;;;5041452;28;20041;-78
2022/03/27 07:54:41;;;;;;;13.18;5.75;;;;;;;;;;5035559;28;20036;-78
2022/03/27 07:57:07;;;;;;;12.40;4.50;;;;;;;;;;5031345;28;20135;-78
2022/03/27 07:59:33;;;;;;;15.02;6.15;;;;;;;;;;5036050;28;20059;-78
2022/03/27 08:02:00;;;;;;;18.08;6.53;;;;;;;;;;5035947;28;20033;-78
2022/03/27 08:04:26;;;;;;;21.70;6.35;;;;;;;;;;5030303;28;20040;-78
2022/03/27 08:06:52;;;;;;;16.35;5.60;;;;;;;;;;5034376;28;20025;-78
2022/03/27 08:09:18;;;;;;;10.85;4.57;;;;;;;;;;5027046;28;20033;-78
2022/03/27 08:11:44;;;;;;;16.63;5.65;;;;;;;;;;5032598;28;20040;-78
2022/03/27 08:14:10;;;;;;;15.57;6.22;;;;;;;;;;5026378;28;20052;-77
2022/03/27 08:16:37;;;;;;;18.25;6.50;;;;;;;;;;5032268;28;20032;-78
2022/03/27 08:19:03;;;;;;;17.88;6.38;;;;;;;;;;5035257;28;20029;-78
2022/03/27 08:21:29;;;;;;;14.13;5.82;;;;;;;;;;5029445;28;20024;-78
2022/03/27 08:23:55;;;;;;;18.10;6.10;;;;;;;;;;5038578;28;20025;-79
2022/03/27 08:29:06;;;;;;;16.58;5.38;;;;;;;;;;5035325;28;20072;-79
2022/03/27 08:31:32;;;;;;;16.35;5.53;;;;;;;;;;5021567;28;20033;-78
2022/03/27 08:33:58;;;;;;;13.98;6.00;;;;;;;;;;5033383;28;20051;-79
2022/03/27 08:36:24;;;;;;;13.20;5.75;;;;;;;;;;5039867;28;20122;-78
2022/03/27 08:38:50;;;;;;;15.13;6.15;;;;;;;;;;5032987;28;20028;-78
2022/03/27 08:41:17;;;;;;;17.77;7.40;;;;;;;;;;5043106;28;20393;-77
2022/03/27 08:43:44;;;;;;;18.08;6.60;;;;;;;;;;5034866;28;20104;-78
2022/03/27 08:46:13;;;;;;;17.50;6.93;;;;;;;;;;5035477;28;20053;-78
2022/03/27 08:48:43;;;;;;;14.90;5.95;;;;;;;;;;5034312;28;20025;-78
2022/03/27 08:51:23;;;;;;;13.52;5.78;;;;;;;;;;5046521;28;20131;-78
2022/03/27 08:54:06;;;;;;;17.20;6.35;;;;;;;;;;5040103;28;20735;-78
2022/03/27 08:56:33;;;;;;;12.05;5.95;;;;;;;;;;5043141;28;20030;-78
2022/03/27 08:59:03;;;;;;;9.93;4.68;;;;;;;;;;5035120;28;20048;-79
2022/03/27 09:01:29;;;;;;;15.68;5.13;;;;;;;;;;5037175;28;20032;-78
2022/03/27 09:03:55;;;;;;;12.30;4.95;;;;;;;;;;5031429;28;20029;-78
2022/03/27 09:06:22;;;;;;;18.00;4.63;;;22.80;81.80;;;;;;5043421;28;20028;-78
2022/03/27 09:08:50;;;;;;;11.32;4.05;;;;;;;;;;5039744;28;20025;-78
2022/03/27 09:11:16;;;;;;;10.90;4.13;;;;;;;;;;5038023;28;20029;-78
2022/03/27 09:13:46;;;;;;;8.63;3.55;;;;;;;;;;5031108;28;20056;-78
2022/03/27 09:16:12;;;;;;;9.95;4.18;;;;;;;;;;5037980;28;20033;-78
2022/03/27 09:19:00;;;;;;;13.52;5.82;;;;;;;;;;5043183;28;20025;-77
2022/03/27 09:21:27;;;;;;;11.40;4.82;;;;;;;;;;5036949;28;20052;-78
2022/03/27 09:23:58;;;;;;;12.07;5.18;;;;;;;;;;5031836;28;20594;-77
2022/03/27 09:26:24;;;;;;;12.23;5.47;;;;;;;;;;5040668;28;20083;-77
2022/03/27 09:28:55;;;;;;;9.73;4.25;;;;;;;;;;5040623;28;20027;-78
2022/03/27 09:31:28;;;;;;;11.40;4.93;;;;;;;;;;5037683;28;20033;-78
2022/03/27 09:33:59;;;;;;;15.93;5.00;;;;;;;;;;5041081;28;20696;-78
2022/03/27 09:36:26;;;;;;;11.52;6.07;;;;;;;;;;5049814;28;20147;-77
2022/03/27 09:39:28;;;;;;;11.63;4.97;;;;;;;;;;5045043;28;20036;-78
2022/03/27 09:41:57;;;;;;;12.98;5.60;;;;;;;;;;5020274;28;20514;-78
2022/03/27 09:44:30;;;;;;;13.63;5.25;;;;;;;;;;5033497;28;20037;-78
2022/03/27 09:47:00;;;;;;;16.17;5.68;;;;;;;;;;5039555;28;24150;-78
2022/03/27 09:49:34;;;;;;;15.05;6.13;;;;;;;;;;5037282;28;20029;-78
2022/03/27 09:52:04;;;;;;;18.35;5.00;;;;;;;;;;5036564;28;20037;-78
2022/03/27 09:54:43;;;;;;;12.75;5.80;;;;;;;;;;5046181;28;20116;-78
2022/03/27 09:57:23;;;;;;;10.52;4.88;;;;;;;;;;5042418;28;20036;-78
2022/03/27 09:59:52;;;;;;;12.30;5.13;;;;;;;;;;5044284;28;20059;-78
2022/03/27 10:02:18;;;;;;;10.90;4.55;;;;;;;;;;5033939;28;20026;-77
2022/03/27 10:04:51;;;;;;;13.00;5.07;;;;;;;;;;5037553;28;20125;-78
2022/03/27 10:07:18;;;;;;;10.07;5.03;;;;;;;;;;5035616;28;20039;-77
2022/03/27 10:09:44;;;;;;;12.38;5.45;;;;;;;;;;5041631;28;20043;-77
2022/03/27 10:12:11;;;;;;;11.55;5.30;;;;;;;;;;5040322;28;20043;-78
2022/03/27 10:14:37;;;;;;;18.20;5.43;;;16.70;91.30;;;;;;5037340;28;20025;-77
2022/03/27 10:17:05;;;;;;;13.82;4.55;;;;;;;;;;5039767;28;20024;-78
2022/03/27 10:19:35;;;;;;;11.23;4.70;;;;;;;;;;5041501;28;20033;-78
2022/03/27 10:22:05;;;;;;;15.82;5.53;;;;;;;;;;5033339;28;20021;-77
2022/03/27 10:24:34;;;;;;;16.63;5.35;;;;;;;;;;5041530;28;20017;-78
2022/03/27 10:27:02;;;;;;;12.68;4.82;;;;;;;;;;5033756;28;20086;-77
2022/03/27 10:29:28;;;;;;;11.32;5.32;;;;;;;;;;5042018;28;20021;-78
2022/03/27 10:31:56;;;;;;;13.88;5.47;;;17.30;70.80;;;;;;5029700;28;20048;-78
2022/03/27 10:34:22;;;;;;;11.90;4.35;;;;;;;;;;5035642;28;20029;-78
2022/03/27 10:36:52;;;;;;;15.25;4.65;;;;;;;;;;5039791;28;20044;-77
2022/03/27 10:39:28;;;;;;;13.07;4.57;;;17.70;71.40;;;;;;5039588;28;20033;-78
2022/03/27 10:42:16;;;;;;;9.27;3.95;;;17.70;70.60;;;;;;5034743;28;20108;-77
2022/03/27 10:44:44;;;;;;;14.52;5.75;;;;;;;;;;5033329;28;20025;-77
2022/03/27 10:47:16;;;;;;;8.68;3.80;;;;;;;;;;5028115;28;20466;-78
2022/03/27 10:50:02;;;;;;;8.95;4.30;;;;;;;;;;5033713;28;20029;-81
2022/03/27 10:52:48;;;;;;;15.30;3.78;;;;;;;;;;5030411;28;20046;-79
2022/03/27 10:55:15;;;;;;;11.13;3.95;;;;;;;;;;5027213;28;20029;-78
2022/03/27 10:57:42;;;;;;;15.13;4.65;;;;;;;;;;5035532;28;20037;-79
2022/03/27 11:00:09;;;;;;;9.50;4.10;;;;;;;;;;5035086;28;20485;-80
2022/03/27 11:02:43;;;;;;;8.43;4.28;;;;;;;;;;5024032;28;20166;-79
2022/03/27 11:05:09;;;;;;;10.05;3.33;;;;;;;;;;5030894;28;20028;-79
2022/03/27 11:07:35;;;;;;;9.38;4.80;;;;;;;;;;5037677;28;20024;-80
2022/03/27 11:10:01;;;;;;;11.93;4.70;;;;;;;;;;5043534;28;20583;-79
2022/03/27 11:12:29;;;;;;;7.03;3.75;;;;;;;;;;5048443;28;20037;-79
2022/03/27 11:15:07;;;;;;;11.55;3.92;;;;;;;;;;5040765;28;20039;-79
2022/03/27 11:17:47;;;;;;;8.05;3.55;;;;;;;;;;5043280;28;20037;-78
2022/03/27 11:20:13;;;;;;;8.13;4.07;;;;;;;;;;5033098;28;20045;-78
2022/03/27 11:23:21;;;;;;;8.55;2.92;;;18.20;72.00;;;;;;5041050;28;20404;-78
2022/03/27 11:25:47;;;;;;;9.52;2.90;;;;;;;;;;5032968;28;20030;-78
2022/03/27 11:28:15;;;;;;;7.70;3.75;;;;;;;;;;5037704;28;20037;-78
2022/03/27 11:31:01;;;;;;;8.27;3.33;;;;;;;;;;5037329;28;20021;-78
2022/03/27 11:33:30;;;;;;;7.70;3.10;;;;;;;;;;5027693;28;20128;-77
2022/03/27 11:36:03;;;;;;;8.88;3.10;;;;;;;;;;5040363;28;20044;-78
2022/03/27 11:38:30;;;;;;;8.98;3.22;;;;;;;;;;5033676;28;20056;-78
2022/03/27 11:40:56;;;;;;;6.40;3.20;;;;;;;;;;5039855;28;20555;-78
2022/03/27 11:43:26;;;;;;;6.50;3.28;;;;;;;;;;5034239;28;20469;-78
2022/03/27 11:45:55;;;;;;;3.95;2.22;;;;;;;;;;5033777;28;20541;-78
2022/03/27 11:48:21;;;;;;;5.28;2.78;;;;;;;;;;5031034;28;20076;-78
2022/03/27 11:50:47;;;;;;;10.32;3.83;;;;;;;;;;5032700;28;20052;-78
2022/03/27 11:53:14;;;;;;;8.63;3.35;;;;;;;;;;5036769;28;20492;-78
2022/03/27 11:55:40;;;;;;;6.25;2.03;;;;;;;;;;5033772;28;20083;-78
2022/03/27 11:58:07;;;;;;;5.72;2.65;;;;;;;;;;5029285;28;20041;-78
2022/03/27 12:00:36;;;;;;;5.35;2.72;;;;;;;;;;5030730;28;20052;-78
2022/03/27 12:03:04;;;;;;;5.95;2.80;;;;;;;;;;5032941;28;20029;-77
2022/03/27 12:05:37;;;;;;;5.28;3.20;;;;;;;;;;5031798;28;20107;-77
2022/03/27 12:08:03;;;;;;;;;;;;;;;;;;5033471;28;20041;-77
2022/03/27 12:10:38;;;;;;;4.85;2.80;;;;;;;;;;5034536;28;19959;-78
2022/03/27 12:13:07;;;;;;;5.47;2.63;;;;;;;;;;5029397;28;20765;-77
2022/03/27 12:15:45;;;;;;;4.53;2.20;;;;;;;;;;5025045;28;20237;-77
2022/03/27 12:18:11;;;;;;;8.15;2.78;;;;;;;;;;5034282;28;20033;-77
2022/03/27 12:20:41;;;;;;;5.88;2.88;;;;;;;;;;5030921;28;20074;-78
2022/03/27 12:23:16;;;;;;;11.98;2.92;;;;;;;;;;5037782;28;20032;-78
2022/03/27 12:25:42;;;;;;;5.47;2.85;;;;;;;;;;5036822;28;20025;-77
2022/03/27 12:30:53;;;;;;;7.43;2.80;;;;;;;;;;5029933;28;20032;-77
2022/03/27 12:33:29;;;;;;;6.95;2.80;;;;;;;;;;5038388;28;20524;-77
2022/03/27 12:36:05;;;;;;;7.03;2.13;;;;;;;;;;5026133;28;20041;-78
2022/03/27 12:38:32;;;;;;;6.43;2.65;;;;;;;;;;5036493;28;20114;-78
2022/03/27 12:40:57;;;;;;;9.55;2.22;;;19.60;74.60;;;;;;5032190;28;20013;-78
2022/03/27 12:43:23;;;;;;;5.88;2.17;;;;;;;;;;5035330;28;20032;-78
2022/03/27 12:45:49;;;;;;;4.45;2.20;;;;;;;;;;5032663;28;20033;-78
2022/03/27 12:48:20;;;;;;;4.93;2.40;;;;;;;;;;5036738;28;20478;-78
2022/03/27 12:50:50;;;;;;;5.15;1.92;;;;;;;;;;5033355;28;20038;-78
2022/03/27 12:53:19;;;;;;;6.53;2.20;;;;;;;;;;5033741;28;20098;-78
2022/03/27 12:55:52;;;;;;;4.25;2.10;;;;;;;;;;5034656;28;20041;-78
2022/03/27 12:58:23;;;;;;;6.93;2.57;;;;;;;;;;5028785;28;20029;-78
2022/03/27 13:01:05;;;;;;;7.28;2.67;;;;;;;;;;5040537;28;20061;-78
2022/03/27 13:03:31;;;;;;;4.15;2.15;;;;;;;;;;5037295;28;20040;-78
2022/03/27 13:05:57;;;;;;;4.40;1.85;;;;;;;;;;5031989;28;20026;-78
2022/03/27 13:08:26;;;;;;;7.53;2.70;;;19.90;71.40;;;;;;5016082;28;20155;-78
2022/03/27 13:11:00;;;;;;;4.22;1.90;;;;;;;;;;5043966;28;20385;-79
2022/03/27 13:13:42;;;;;;;7.65;1.77;;;;;;;;;;5023299;28;20033;-77
2022/03/27 13:16:23;;;;;;;2.28;1.02;;;;;;;;;;5035640;28;20041;-78
2022/03/27 13:19:00;;;;;;;6.13;2.05;;;;;;;;;;5035574;28;20029;-77
2022/03/27 13:21:27;;;;;;;4.88;2.20;;;;;;;;;;5028297;28;20172;-77
2022/03/27 13:23:52;;;;;;;4.35;2.10;;;;;;;;;;5038114;28;20167;-77
2022/03/27 13:26:18;;;;;;;6.38;2.42;;;;;;;;;;5031112;28;20491;-78
2022/03/27 13:28:44;;;;;;;5.43;2.58;;;;;;;;;;5033419;28;20025;-78
2022/03/27 13:31:11;;;;;;;4.38;2.00;;;;;;;;;;5035952;28;20132;-77
2022/03/27 13:33:38;;;;;;;3.33;1.70;;;19.70;71.90;;;;;;5034245;28;20033;-78
2022/03/27 13:36:04;;;;;;;4.43;1.92;;;;;;;;;;5029965;28;20032;-78
2022/03/27 13:38:30;;;;;;;4.20;1.80;;;;;;;;;;5041662;28;20775;-77
2022/03/27 13:43:41;;;;;;;5.30;2.47;;;;;;;;;;5037365;28;20044;-78
2022/03/27 13:46:09;;;;;;;5.22;2.67;;;;;;;;;;5025541;28;20402;-77
2022/03/27 13:48:35;;;;;;;9.40;2.25;;;;;;;;;;5032220;28;20074;-78
2022/03/27 13:51:01;;;;;;;4.75;1.75;;;;;;;;;;5039055;28;20037;-77
2022/03/27 13:53:27;;;;;;;5.60;2.22;;;;;;;;;;5033802;28;20037;-80
2022/03/27 13:55:53;;;;;;;6.78;2.38;;;;;;;;;;5047792;28;20223;-79
2022/03/27 13:58:19;;;;;;;3.53;1.52;;;;;;;;;;5044889;28;20052;-79
2022/03/27 14:00:45;;;;;;;4.82;2.38;;;;;;;;;;5043109;28;20127;-79
2022/03/27 14:03:11;;;;;;;5.28;2.65;;;;;;;;;;5044994;28;20505;-78
2022/03/27 14:05:39;;;;;;;4.47;1.75;;;;;;;;;;5039048;28;21035;-79
2022/03/27 14:08:05;;;;;;;4.60;1.95;;;;;;;;;;5037132;28;20064;-79
2022/03/27 14:10:32;;;;;;;4.03;1.95;;;;;;;;;;5034767;28;20098;-78
2022/03/27 14:12:58;;;;;;;3.45;2.08;;;;;;;;;;5043248;28;20083;-80
2022/03/27 14:15:24;;;;;;;5.40;2.20;;;;;;;;;;5037640;28;20040;-80
2022/03/27 14:17:51;;;;;;;4.40;2.20;;;;;;;;;;5041437;28;20086;-79
2022/03/27 14:20:17;;;;;;;4.60;1.90;;;;;;;;;;5041894;28;20044;-80
2022/03/27 14:22:43;;;;;;;7.63;2.22;;;;;;;;;;5039127;28;20875;-79
2022/03/27 14:25:12;;;;;;;7.05;2.28;;;;;;;;;;5045079;28;20048;-80
2022/03/27 14:27:40;;;;;;;5.90;2.15;;;;;;;;;;5042178;28;20021;-81
2022/03/27 14:30:07;;;;;;;5.80;2.50;;;;;;;;;;5038507;28;20040;-79
2022/03/27 14:32:33;;;;;;;6.75;2.55;;;;;;;;;;5043101;28;20041;-78
2022/03/27 14:34:59;;;;;;;4.35;2.03;;;;;;;;;;5040387;28;20025;-78
2022/03/27 14:37:25;;;;;;;5.03;2.33;;;;;;;;;;5047485;28;20052;-79
2022/03/27 14:39:52;;;;;;;5.13;2.40;;;;;;;;;;5037796;28;20022;-77
2022/03/27 14:42:18;;;;;;;6.88;3.00;;;;;;;;;;5035790;28;20533;-79
2022/03/27 14:44:45;;;;;;;6.00;3.63;;;;;;;;;;5045104;28;20592;-78
2022/03/27 14:47:11;;;;;;;6.53;2.85;;;;;;;;;;5051201;28;20043;-78
2022/03/27 14:49:37;;;;;;;5.88;2.45;;;;;;;;;;5030398;28;20057;-79